createdAt,value
2023-10-26T00:02:34.238Z,59.96
2023-10-26T00:05:07.676Z,59.15
2023-10-26T00:07:42.095Z,59.90
2023-10-26T00:10:15.162Z,59.05
2023-10-26T00:12:48.558Z,59.29
2023-10-26T00:15:21.144Z,60.24
2023-10-26T00:17:54.405Z,59.65
2023-10-26T00:20:27.254Z,59.18
2023-10-26T00:23:03.222Z,59.53
2023-10-26T00:25:36.039Z,59.90
2023-10-26T00:28:09.318Z,59.67
2023-10-26T00:30:42.170Z,60.46
2023-10-26T00:33:16.796Z,59.90
2023-10-26T00:35:49.646Z,60.28
2023-10-26T00:38:24.176Z,60.16
2023-10-26T00:40:57.550Z,60.70
2023-10-26T00:43:31.781Z,59.85
2023-10-26T00:46:05.314Z,60.36
2023-10-26T00:48:38.829Z,60.51
2023-10-26T00:51:12.940Z,60.16
2023-10-26T00:53:48.159Z,60.59
2023-10-26T00:56:23.470Z,59.88
2023-10-26T00:58:58.617Z,60.53
2023-10-26T01:01:31.796Z,59.69
2023-10-26T01:04:06.645Z,59.87
2023-10-26T01:06:39.672Z,60.46
2023-10-26T01:09:16.194Z,60.19
2023-10-26T01:11:49.448Z,60.27
2023-10-26T01:14:22.847Z,59.83
2023-10-26T01:16:56.009Z,59.60
2023-10-26T01:19:40.165Z,59.41
2023-10-26T01:22:14.272Z,59.78
2023-10-26T01:24:47.602Z,60.29
2023-10-26T01:27:20.600Z,59.64
2023-10-26T01:29:53.649Z,59.88
2023-10-26T01:32:27.932Z,59.55
2023-10-26T01:35:01.201Z,59.16
2023-10-26T01:37:35.933Z,59.94
2023-10-26T01:40:10.251Z,59.75
2023-10-26T01:42:43.665Z,59.77
2023-10-26T01:45:16.891Z,59.63
2023-10-26T01:47:50.389Z,59.50
2023-10-26T01:50:23.365Z,59.33
2023-10-26T01:52:58.264Z,59.36
2023-10-26T01:55:31.169Z,59.69
2023-10-26T01:58:04.753Z,59.06
2023-10-26T02:00:37.676Z,59.58
2023-10-26T02:03:10.421Z,59.66
2023-10-26T02:05:44.288Z,59.84
2023-10-26T02:08:19.000Z,59.08
2023-10-26T02:10:52.275Z,58.95
2023-10-26T02:13:25.767Z,58.96
2023-10-26T02:16:02.896Z,59.52
2023-10-26T02:18:36.925Z,59.33
2023-10-26T02:21:09.540Z,59.82
2023-10-26T02:23:45.930Z,59.98
2023-10-26T02:26:19.035Z,59.86
2023-10-26T02:28:51.950Z,60.25
2023-10-26T02:31:24.758Z,59.40
2023-10-26T02:33:57.826Z,60.05
2023-10-26T02:36:31.908Z,59.67
2023-10-26T02:39:08.935Z,59.13
2023-10-26T02:41:41.654Z,59.02
2023-10-26T02:44:16.126Z,59.84
2023-10-26T02:46:49.046Z,59.37
2023-10-26T02:49:22.318Z,59.29
2023-10-26T02:51:55.110Z,59.62
2023-10-26T02:54:29.969Z,58.81
2023-10-26T02:57:03.185Z,58.93
2023-10-26T02:59:36.409Z,59.48
2023-10-26T03:02:09.059Z,59.18
2023-10-26T03:04:44.879Z,59.34
2023-10-26T03:07:23.620Z,59.16
2023-10-26T03:09:58.136Z,59.44
2023-10-26T03:12:34.618Z,58.85
2023-10-26T03:15:09.356Z,58.86
2023-10-26T03:17:42.579Z,58.91
2023-10-26T03:20:15.406Z,59.45
2023-10-26T03:22:48.121Z,59.65
2023-10-26T03:25:23.161Z,59.26
2023-10-26T03:27:55.980Z,59.42
2023-10-26T03:30:29.555Z,59.24
2023-10-26T03:33:02.881Z,59.96
2023-10-26T03:35:41.297Z,59.81
2023-10-26T03:38:14.364Z,59.70
2023-10-26T03:40:50.870Z,59.49
2023-10-26T03:43:24.055Z,59.81
2023-10-26T03:45:59.421Z,59.24
2023-10-26T03:48:36.789Z,59.11
2023-10-26T03:51:10.319Z,58.79
2023-10-26T03:53:44.101Z,59.81
2023-10-26T03:56:18.158Z,59.86
2023-10-26T03:58:52.042Z,59.93
2023-10-26T04:01:24.868Z,59.45
2023-10-26T04:03:57.751Z,59.93
2023-10-26T04:06:33.693Z,60.43
2023-10-26T04:09:06.797Z,59.41
2023-10-26T04:11:43.699Z,59.61
2023-10-26T04:14:17.576Z,60.10
2023-10-26T04:16:51.905Z,60.08
2023-10-26T04:19:25.083Z,60.42
2023-10-26T04:21:58.364Z,59.31
2023-10-26T04:24:31.158Z,60.31
2023-10-26T04:27:06.208Z,60.49
2023-10-26T04:29:38.897Z,59.92
2023-10-26T04:32:12.242Z,60.29
2023-10-26T04:34:47.812Z,59.66
2023-10-26T04:37:21.278Z,60.00
2023-10-26T04:39:54.039Z,60.25
2023-10-26T04:42:28.859Z,59.73
2023-10-26T04:45:01.772Z,60.46
2023-10-26T04:47:38.140Z,59.98
2023-10-26T04:50:11.904Z,60.06
2023-10-26T04:52:45.189Z,60.24
2023-10-26T04:55:18.288Z,59.68
2023-10-26T04:57:53.189Z,60.52
2023-10-26T05:00:28.607Z,59.66
2023-10-26T05:03:02.176Z,60.31
2023-10-26T05:05:34.928Z,59.69
2023-10-26T05:08:08.026Z,59.96
2023-10-26T05:10:41.672Z,60.28
2023-10-26T05:13:15.890Z,60.77
2023-10-26T05:15:49.809Z,60.02
2023-10-26T05:18:23.038Z,59.62
2023-10-26T05:20:56.675Z,60.66
2023-10-26T05:23:30.125Z,59.91
2023-10-26T05:26:03.641Z,60.73
2023-10-26T05:28:38.057Z,61.10
2023-10-26T05:31:10.853Z,60.17
2023-10-26T05:33:44.056Z,60.58
2023-10-26T05:36:17.278Z,60.22
2023-10-26T05:38:51.689Z,60.67
2023-10-26T05:41:24.265Z,60.75
2023-10-26T05:43:58.668Z,59.86
2023-10-26T05:46:31.433Z,59.59
2023-10-26T05:49:05.401Z,60.56
2023-10-26T05:51:38.112Z,60.24
2023-10-26T05:54:11.779Z,60.62
2023-10-26T05:56:44.661Z,60.63
2023-10-26T05:59:19.352Z,60.20
2023-10-26T06:01:52.376Z,60.78
2023-10-26T06:04:25.299Z,60.95
2023-10-26T06:06:58.436Z,60.60
2023-10-26T06:09:31.817Z,59.73
2023-10-26T06:12:04.939Z,60.58
2023-10-26T06:14:39.151Z,59.27
2023-10-26T06:17:12.786Z,59.58
2023-10-26T06:19:45.670Z,60.02
2023-10-26T06:22:19.080Z,60.61
2023-10-26T06:24:52.346Z,59.62
2023-10-26T06:27:25.470Z,60.40
2023-10-26T06:29:59.600Z,60.60
2023-10-26T06:32:32.840Z,59.57
2023-10-26T06:35:06.412Z,59.43
2023-10-26T06:37:39.684Z,59.60
2023-10-26T06:40:12.777Z,60.07
2023-10-26T06:42:45.722Z,60.03
2023-10-26T06:45:20.071Z,59.84
2023-10-26T06:47:53.003Z,59.56
2023-10-26T06:50:25.942Z,60.19
2023-10-26T06:52:59.100Z,59.72
2023-10-26T06:55:34.015Z,59.89
2023-10-26T06:58:07.447Z,59.56
2023-10-26T07:00:42.222Z,59.43
2023-10-26T07:03:26.164Z,59.41
2023-10-26T07:06:02.010Z,59.66
2023-10-26T07:08:35.853Z,59.36
2023-10-26T07:11:09.008Z,60.08
2023-10-26T07:13:42.290Z,60.01
2023-10-26T07:16:16.783Z,59.86
2023-10-26T07:18:50.614Z,59.75
2023-10-26T07:21:23.868Z,59.81
2023-10-26T07:23:57.024Z,59.25
2023-10-26T07:26:30.094Z,60.47
2023-10-26T07:29:03.082Z,59.67
2023-10-26T07:31:38.024Z,60.09
2023-10-26T07:34:10.629Z,59.55
2023-10-26T07:36:44.138Z,59.77
2023-10-26T07:39:45.955Z,59.54
2023-10-26T07:42:10.204Z,59.52
2023-10-26T07:44:43.400Z,59.04
2023-10-26T07:47:17.987Z,59.16
2023-10-26T07:49:51.490Z,59.07
2023-10-26T07:52:24.511Z,59.01
2023-10-26T07:54:57.216Z,59.05
2023-10-26T07:57:30.867Z,59.31
2023-10-26T08:00:05.725Z,59.52
2023-10-26T08:02:47.737Z,59.45
2023-10-26T08:05:20.505Z,58.73
2023-10-26T08:07:54.333Z,59.58
2023-10-26T08:10:27.570Z,59.22
2023-10-26T08:13:01.004Z,59.18
2023-10-26T08:16:35.475Z,58.80
2023-10-26T08:18:28.724Z,58.98
2023-10-26T08:21:03.842Z,59.03
2023-10-26T08:23:37.361Z,58.46
2023-10-26T08:26:13.772Z,59.38
2023-10-26T08:28:47.265Z,59.54
2023-10-26T08:31:19.861Z,59.18
2023-10-26T08:33:54.910Z,59.54
2023-10-26T08:36:27.555Z,58.64
2023-10-26T08:39:00.728Z,58.56
2023-10-26T08:41:34.749Z,58.89
2023-10-26T08:44:08.781Z,58.82
2023-10-26T08:46:43.557Z,58.57
2023-10-26T08:49:19.157Z,58.81
2023-10-26T08:51:52.766Z,59.23
2023-10-26T08:54:27.532Z,58.73
2023-10-26T08:57:07.715Z,58.75
2023-10-26T08:59:41.269Z,59.57
2023-10-26T09:02:13.976Z,59.23
2023-10-26T09:05:05.338Z,59.14
2023-10-26T09:07:38.958Z,58.21
2023-10-26T09:10:12.697Z,59.15
2023-10-26T09:12:59.227Z,58.89
2023-10-26T09:15:32.026Z,59.23
2023-10-26T09:18:10.658Z,59.34
2023-10-26T09:20:45.315Z,59.03
2023-10-26T09:23:29.108Z,58.71
2023-10-26T09:26:04.704Z,58.90
2023-10-26T09:28:52.178Z,58.71
2023-10-26T09:31:26.825Z,59.61
2023-10-26T09:34:11.607Z,58.40
2023-10-26T09:36:58.973Z,59.52
2023-10-26T09:39:34.431Z,58.63
2023-10-26T09:42:12.177Z,58.69
2023-10-26T09:44:46.260Z,59.40
2023-10-26T09:47:21.638Z,59.42
2023-10-26T09:49:56.508Z,58.99
2023-10-26T09:52:31.693Z,58.48
2023-10-26T09:55:08.082Z,58.39
2023-10-26T09:57:46.743Z,58.48
2023-10-26T10:00:19.746Z,59.12
2023-10-26T10:03:10.305Z,59.02
2023-10-26T10:05:44.592Z,58.96
2023-10-26T10:09:01.662Z,59.14
2023-10-26T10:11:35.287Z,58.53
2023-10-26T10:14:08.584Z,58.89
2023-10-26T10:16:52.417Z,58.90
2023-10-26T10:19:27.771Z,59.24
2023-10-26T10:22:02.605Z,59.25
2023-10-26T10:24:52.657Z,59.94
2023-10-26T10:27:26.544Z,59.29
2023-10-26T10:30:06.925Z,59.60
2023-10-26T10:32:51.043Z,59.62
2023-10-26T10:35:40.822Z,59.90
2023-10-26T10:38:25.807Z,59.73
2023-10-26T10:41:10.739Z,60.13
2023-10-26T10:43:45.673Z,59.81
2023-10-26T10:46:21.607Z,60.54
2023-10-26T10:49:00.318Z,60.71
2023-10-26T10:51:34.937Z,61.29
2023-10-26T10:54:26.482Z,60.23
2023-10-26T10:57:06.229Z,61.21
2023-10-26T10:59:39.783Z,60.79
2023-10-26T11:02:13.996Z,61.98
2023-10-26T11:05:02.141Z,61.86
2023-10-26T11:07:39.285Z,62.10
2023-10-26T11:10:12.935Z,62.74
2023-10-26T11:12:52.198Z,62.54
2023-10-26T11:15:33.063Z,63.58
2023-10-26T12:14:15.022Z,71.01
2023-10-26T12:16:48.727Z,70.95
2023-10-26T12:19:21.496Z,70.68
2023-10-26T12:21:55.252Z,70.18
2023-10-26T12:24:30.644Z,70.19
2023-10-26T12:27:04.331Z,70.47
2023-10-26T12:29:38.553Z,69.56
2023-10-26T12:32:11.613Z,70.52
2023-10-26T12:34:44.611Z,69.98
2023-10-26T12:37:17.674Z,70.90
2023-10-26T12:39:50.793Z,70.32
2023-10-26T12:42:25.177Z,70.56
2023-10-26T12:44:59.116Z,70.89
2023-10-26T12:47:32.421Z,69.97
2023-10-26T12:50:05.785Z,70.92
2023-10-26T12:52:38.904Z,70.54
2023-10-26T12:55:11.870Z,70.92
2023-10-26T12:57:46.347Z,71.03
2023-10-26T13:00:20.988Z,71.00
2023-10-26T13:02:54.369Z,71.44
2023-10-26T13:05:27.590Z,71.63
2023-10-26T13:08:00.743Z,72.34
2023-10-26T13:10:33.743Z,72.18
2023-10-26T13:13:08.183Z,72.59
2023-10-26T13:15:42.246Z,72.43
2023-10-26T13:18:15.812Z,72.26
2023-10-26T13:20:48.992Z,72.80
2023-10-26T13:23:22.317Z,73.67
2023-10-26T13:25:55.682Z,73.62
2023-10-26T13:28:28.835Z,73.62
2023-10-26T13:31:03.638Z,73.19
2023-10-26T13:33:37.371Z,72.89
2023-10-26T13:36:10.525Z,73.57
2023-10-26T13:38:43.594Z,72.70
2023-10-26T13:41:17.384Z,73.32
2023-10-26T13:43:50.438Z,73.76
2023-10-26T13:46:24.685Z,72.95
2023-10-26T13:48:58.634Z,73.16
2023-10-26T13:51:31.443Z,73.86
2023-10-26T13:54:04.911Z,72.88
2023-10-26T13:56:37.823Z,73.68
2023-10-26T13:59:11.278Z,73.50
2023-10-26T14:01:45.545Z,73.84
2023-10-26T14:04:18.600Z,73.45
2023-10-26T14:06:52.101Z,73.91
2023-10-26T14:09:24.820Z,73.52
2023-10-26T14:12:02.435Z,74.43
2023-10-26T14:14:35.895Z,73.75
2023-10-26T14:17:10.373Z,73.24
2023-10-26T14:19:43.673Z,73.56
2023-10-26T14:22:16.622Z,74.10
2023-10-26T14:24:49.887Z,73.59
2023-10-26T14:27:22.556Z,73.79
2023-10-26T14:29:55.260Z,74.67
2023-10-26T14:32:29.311Z,74.17
2023-10-26T14:35:02.310Z,73.44
2023-10-26T14:37:36.698Z,74.70
2023-10-26T14:40:10.802Z,74.24
2023-10-26T14:42:43.909Z,74.39
2023-10-26T14:45:16.978Z,74.29
2023-10-26T14:47:51.286Z,74.61
2023-10-26T14:50:24.391Z,74.11
2023-10-26T14:52:57.117Z,74.52
2023-10-26T14:55:30.393Z,73.95
2023-10-26T14:58:03.180Z,74.47
2023-10-26T15:00:39.782Z,74.42
2023-10-26T15:03:13.831Z,74.64
2023-10-26T15:05:46.902Z,74.86
2023-10-26T15:08:19.534Z,74.89
2023-10-26T15:10:52.648Z,74.01
2023-10-26T15:13:25.271Z,74.38
2023-10-26T15:16:01.779Z,74.39
2023-10-26T15:18:38.047Z,74.16
2023-10-26T15:21:11.945Z,74.35
2023-10-26T15:23:44.555Z,75.08
2023-10-26T15:26:17.567Z,74.56
2023-10-26T15:28:50.363Z,75.04
2023-10-26T15:31:24.224Z,75.30
2023-10-26T15:33:59.940Z,74.83
2023-10-26T15:36:32.805Z,74.37
2023-10-26T15:39:06.059Z,74.71
2023-10-26T15:41:43.909Z,75.50
2023-10-26T15:44:17.299Z,74.53
2023-10-26T15:46:50.210Z,75.29
2023-10-26T15:49:34.704Z,75.13
2023-10-26T15:52:08.980Z,74.93
2023-10-26T15:54:42.800Z,75.03
2023-10-26T15:57:16.245Z,74.33
2023-10-26T15:59:49.753Z,74.98
2023-10-26T16:02:22.733Z,75.34
2023-10-26T16:04:57.371Z,74.30
2023-10-26T16:07:31.647Z,74.40
2023-10-26T16:10:04.780Z,74.80
2023-10-26T16:12:37.919Z,74.01
2023-10-26T16:15:11.651Z,74.94
2023-10-26T16:17:44.397Z,74.81
2023-10-26T16:20:19.269Z,74.22
2023-10-26T16:22:52.272Z,73.96
2023-10-26T16:25:25.704Z,73.76
2023-10-26T16:27:58.355Z,74.22
2023-10-26T16:30:31.483Z,74.55
2023-10-26T16:33:04.676Z,74.41
2023-10-26T16:35:41.275Z,74.98
2023-10-26T16:38:14.182Z,74.91
2023-10-26T16:40:47.095Z,74.66
2023-10-26T16:43:20.207Z,74.52
2023-10-26T16:45:53.424Z,75.03
2023-10-26T16:48:27.874Z,75.20
2023-10-26T16:51:02.830Z,74.99
2023-10-26T16:53:35.783Z,74.55
2023-10-26T16:56:10.046Z,75.38
2023-10-26T16:58:42.591Z,75.42
2023-10-26T17:01:15.730Z,74.59
2023-10-26T17:03:48.495Z,74.93
2023-10-26T17:06:22.829Z,75.29
2023-10-26T17:08:55.403Z,74.97
2023-10-26T17:11:28.453Z,75.26
2023-10-26T17:14:01.180Z,75.19
2023-10-26T17:16:34.777Z,75.00
2023-10-26T17:19:09.336Z,75.26
2023-10-26T17:21:43.767Z,75.23
2023-10-26T17:24:16.854Z,75.82
2023-10-26T17:26:51.421Z,75.07
2023-10-26T17:29:24.169Z,76.24
2023-10-26T17:31:57.387Z,75.19
2023-10-26T17:34:30.706Z,75.39
2023-10-26T17:37:05.183Z,75.57
2023-10-26T17:39:38.777Z,76.06
2023-10-26T17:42:11.713Z,76.08
2023-10-26T17:44:44.518Z,75.80
2023-10-26T17:47:17.970Z,76.04
2023-10-26T17:49:50.622Z,76.15
2023-10-26T17:52:24.933Z,76.28
2023-10-26T17:54:58.686Z,76.24
2023-10-26T17:57:31.939Z,75.88
2023-10-26T18:00:06.064Z,75.93
2023-10-26T18:02:45.160Z,76.21
2023-10-26T18:05:18.242Z,75.05
2023-10-26T18:07:54.190Z,75.72
2023-10-26T18:10:27.287Z,75.79
2023-10-26T18:13:00.656Z,76.50
2023-10-26T18:15:34.906Z,75.56
2023-10-26T18:18:08.368Z,76.49
2023-10-26T18:20:52.117Z,75.54
2023-10-26T18:23:27.518Z,75.38
2023-10-26T18:26:01.756Z,76.11
2023-10-26T18:28:36.338Z,76.38
2023-10-26T18:31:12.261Z,75.54
2023-10-26T18:33:46.901Z,75.82
2023-10-26T18:36:22.441Z,75.94
2023-10-26T18:38:57.407Z,76.37
2023-10-26T18:41:30.602Z,75.45
2023-10-26T18:44:03.742Z,75.85
2023-10-26T18:46:36.871Z,76.18
2023-10-26T18:49:10.161Z,76.29
2023-10-26T18:51:43.788Z,75.95
2023-10-26T18:54:17.871Z,75.60
2023-10-26T18:56:51.254Z,75.69
2023-10-26T18:59:23.907Z,76.24
2023-10-26T19:01:57.972Z,75.90
2023-10-26T19:04:33.684Z,75.97
2023-10-26T19:07:07.861Z,75.75
2023-10-26T19:09:43.076Z,76.41
2023-10-26T19:12:16.886Z,76.44
2023-10-26T19:14:49.973Z,76.11
2023-10-26T19:17:23.375Z,75.67
2023-10-26T19:19:56.192Z,75.91
2023-10-26T19:22:29.651Z,75.56
2023-10-26T19:25:04.433Z,76.04
2023-10-26T19:27:37.997Z,75.65
2023-10-26T19:30:15.214Z,76.34
2023-10-26T19:32:48.009Z,76.26
2023-10-26T19:35:21.691Z,75.79
2023-10-26T19:37:58.877Z,76.33
2023-10-26T19:40:33.284Z,75.52
2023-10-26T19:43:06.947Z,75.40
2023-10-26T19:45:41.449Z,76.04
2023-10-26T19:48:15.512Z,75.42
2023-10-26T19:50:48.698Z,75.53
2023-10-26T19:53:22.013Z,76.15
2023-10-26T19:55:56.729Z,76.10
2023-10-26T19:58:29.480Z,75.78
2023-10-26T20:01:02.579Z,76.44
2023-10-26T20:03:35.715Z,76.25
2023-10-26T20:06:09.072Z,75.69
2023-10-26T20:08:41.966Z,76.56
2023-10-26T20:11:16.475Z,76.38
2023-10-26T20:13:49.398Z,76.28
2023-10-26T20:16:22.969Z,76.66
2023-10-26T20:19:00.768Z,76.52
2023-10-26T20:21:34.323Z,76.72
2023-10-26T20:24:09.330Z,76.36
2023-10-26T20:26:43.626Z,76.90
2023-10-26T20:29:17.986Z,76.40
2023-10-26T20:31:54.065Z,76.15
2023-10-26T20:34:27.492Z,75.94
2023-10-26T20:37:01.053Z,76.03
2023-10-26T20:39:34.481Z,75.81
2023-10-26T20:42:09.035Z,76.51
2023-10-26T20:44:42.035Z,75.96
2023-10-26T20:47:15.349Z,76.21
2023-10-26T20:49:50.211Z,75.83
2023-10-26T20:52:23.463Z,76.18
2023-10-26T20:54:56.249Z,75.70
2023-10-26T20:57:31.197Z,76.24
2023-10-26T21:00:04.722Z,76.20
2023-10-26T21:02:38.173Z,76.21
2023-10-26T21:05:11.100Z,75.73
2023-10-26T21:07:44.790Z,75.62
2023-10-26T21:10:18.048Z,76.42
2023-10-26T21:12:53.772Z,75.76
2023-10-26T21:15:26.705Z,76.36
2023-10-26T21:18:00.182Z,76.10
2023-10-26T21:20:34.614Z,76.35
2023-10-26T21:23:09.054Z,76.21
2023-10-26T21:25:42.223Z,76.61
2023-10-26T21:28:16.816Z,76.29
2023-10-26T21:30:49.888Z,75.61
2023-10-26T21:33:23.200Z,76.25
2023-10-26T21:35:56.108Z,76.24
2023-10-26T21:38:29.043Z,75.93
2023-10-26T21:41:05.317Z,76.75
2023-10-26T21:43:40.097Z,76.16
2023-10-26T21:46:13.761Z,76.36
2023-10-26T21:48:46.992Z,76.81
2023-10-26T21:51:19.574Z,75.76
2023-10-26T21:53:52.957Z,75.97
2023-10-26T21:56:25.546Z,75.91
2023-10-26T21:59:00.331Z,75.77
2023-10-26T22:01:33.556Z,75.85
2023-10-26T22:06:45.277Z,76.08
2023-10-26T22:09:18.464Z,75.57
2023-10-26T22:11:51.497Z,75.97
2023-10-26T22:14:25.888Z,75.53
2023-10-26T22:16:59.774Z,75.96
2023-10-26T22:19:33.524Z,75.70
2023-10-26T22:22:06.722Z,75.53
2023-10-26T22:24:39.697Z,76.32
2023-10-26T22:27:13.125Z,75.58
2023-10-26T22:29:47.425Z,76.31
2023-10-26T22:32:20.511Z,75.32
2023-10-26T22:34:54.061Z,76.38
2023-10-26T22:37:27.537Z,75.70
2023-10-26T22:40:00.949Z,75.97
2023-10-26T22:42:33.552Z,75.93
2023-10-26T22:45:12.635Z,76.40
2023-10-26T22:47:45.329Z,76.08
2023-10-26T22:50:18.613Z,75.86
2023-10-26T22:52:51.589Z,76.29
2023-10-26T22:55:24.812Z,75.42
2023-10-26T22:57:57.732Z,76.18
2023-10-26T23:00:33.156Z,75.67
2023-10-26T23:03:06.396Z,75.66
2023-10-26T23:05:42.304Z,75.81
2023-10-26T23:08:15.885Z,76.12
2023-10-26T23:10:49.231Z,75.33
2023-10-26T23:13:21.809Z,75.93
2023-10-26T23:15:56.577Z,75.47
2023-10-26T23:18:29.298Z,75.96
2023-10-26T23:21:02.141Z,75.55
2023-10-26T23:23:39.979Z,76.16
2023-10-26T23:26:13.694Z,75.34
2023-10-26T23:28:47.104Z,75.36
2023-10-26T23:31:21.524Z,76.06
2023-10-26T23:33:55.350Z,76.24
2023-10-26T23:36:28.283Z,75.71
2023-10-26T23:39:01.594Z,75.83
2023-10-26T23:41:34.233Z,76.24
2023-10-26T23:44:08.158Z,75.36
2023-10-26T23:46:42.615Z,75.71
2023-10-26T23:49:16.392Z,75.76
2023-10-26T23:51:49.021Z,75.38
2023-10-26T23:54:25.775Z,75.55
2023-10-26T23:56:58.581Z,75.33
2023-10-26T23:59:32.046Z,75.75
